createdAt,value
2019-05-06T00:00:34.210Z,5.98
2019-05-06T00:05:35.903Z,6.03
2019-05-06T00:10:37.730Z,6.01
2019-05-06T00:15:39.346Z,5.97
2019-05-06T00:20:41.136Z,5.98
2019-05-06T00:25:47.336Z,5.95
2019-05-06T00:30:55.854Z,5.94
2019-05-06T00:36:00.210Z,5.95
2019-05-06T00:41:06.603Z,5.90
2019-05-06T00:46:08.279Z,5.87
2019-05-06T00:51:09.780Z,5.83
2019-05-06T00:56:11.608Z,5.82
2019-05-06T01:01:25.893Z,5.72
2019-05-06T01:06:16.841Z,5.67
2019-05-06T01:11:18.660Z,5.63
2019-05-06T01:16:21.346Z,5.63
2019-05-06T01:21:23.826Z,5.68
2019-05-06T01:26:25.425Z,5.70
2019-05-06T01:31:39.719Z,5.78
2019-05-06T01:36:30.524Z,5.85
2019-05-06T01:41:49.013Z,5.92
2019-05-06T01:46:50.493Z,5.96
2019-05-06T01:51:54.412Z,6.01
2019-05-06T01:56:55.791Z,6.01
2019-05-06T02:02:01.046Z,6.03
2019-05-06T02:07:01.016Z,6.05
2019-05-06T02:12:04.611Z,6.04
2019-05-06T02:17:06.375Z,6.06
2019-05-06T02:22:25.288Z,6.08
2019-05-06T02:27:26.792Z,6.08
2019-05-06T02:32:36.233Z,6.06
2019-05-06T02:37:46.064Z,6.00
2019-05-06T02:42:45.982Z,5.94
2019-05-06T02:47:53.576Z,5.90
2019-05-06T02:52:54.048Z,5.85
2019-05-06T02:57:55.533Z,5.81
2019-05-06T03:02:57.008Z,5.79
2019-05-06T03:07:58.588Z,5.79
2019-05-06T03:13:02.974Z,5.77
2019-05-06T03:18:04.703Z,5.76
2019-05-06T03:23:08.063Z,5.76
2019-05-06T03:28:09.590Z,5.76
2019-05-06T03:38:14.637Z,5.75
2019-05-06T03:43:16.531Z,5.78
2019-05-06T03:48:20.235Z,5.84
2019-05-06T03:53:23.249Z,5.82
2019-05-06T03:58:26.863Z,5.85
2019-05-06T04:03:44.208Z,5.78
2019-05-06T04:08:34.152Z,5.80
2019-05-06T04:13:37.592Z,5.83
2019-05-06T04:18:44.091Z,5.84
2019-05-06T04:23:53.487Z,5.88
2019-05-06T04:28:56.135Z,5.94
2019-05-06T04:34:09.983Z,6.03
2019-05-06T04:39:04.222Z,6.11
2019-05-06T04:44:06.859Z,6.19
2019-05-06T04:49:14.088Z,6.25
2019-05-06T04:54:13.645Z,6.30
2019-05-06T04:59:15.820Z,6.37
2019-05-06T05:04:28.206Z,6.40
2019-05-06T05:09:23.033Z,6.51
2019-05-06T05:14:33.293Z,6.48
2019-05-06T05:19:35.071Z,6.50
2019-05-06T05:24:36.962Z,6.54
2019-05-06T05:29:38.743Z,6.61
2019-05-06T05:34:40.992Z,6.61
2019-05-06T05:39:43.364Z,6.70
2019-05-06T05:44:47.047Z,6.77
2019-05-06T05:50:03.288Z,6.83
2019-05-06T05:55:05.402Z,6.86
2019-05-06T06:00:07.767Z,6.93
2019-05-06T06:05:09.682Z,6.99
2019-05-06T06:10:13.968Z,7.15
2019-05-06T06:15:27.703Z,7.35
2019-05-06T06:20:44.562Z,7.54
2019-05-06T06:25:46.543Z,7.76
2019-05-06T06:30:48.558Z,8.02
2019-05-06T06:36:09.048Z,8.17
2019-05-06T06:41:12.112Z,8.26
2019-05-06T06:46:14.767Z,8.39
2019-05-06T06:51:16.547Z,8.66
2019-05-06T06:56:21.900Z,8.76
2019-05-06T07:01:27.679Z,8.72
2019-05-06T07:06:33.067Z,8.66
2019-05-06T07:11:34.547Z,8.68
2019-05-06T07:16:36.275Z,8.69
2019-05-06T07:21:43.609Z,8.62
2019-05-06T07:26:47.494Z,8.66
2019-05-06T07:31:49.066Z,8.66
2019-05-06T07:36:52.426Z,8.59
2019-05-06T07:41:56.227Z,8.61
2019-05-06T07:47:13.401Z,8.65
2019-05-06T07:52:17.283Z,8.70
2019-05-06T07:57:18.912Z,8.81
2019-05-06T08:02:22.633Z,8.81
2019-05-06T08:07:23.874Z,8.74
2019-05-06T08:12:25.360Z,8.83
2019-05-06T08:17:33.142Z,8.89
2019-05-06T08:22:52.966Z,8.98
2019-05-06T08:27:55.624Z,9.03
2019-05-06T08:32:57.103Z,9.02
2019-05-06T08:37:59.022Z,8.89
2019-05-06T08:43:02.196Z,8.83
2019-05-06T08:48:04.210Z,8.93
2019-05-06T08:53:16.774Z,9.01
2019-05-06T08:58:18.458Z,9.07
2019-05-06T09:03:22.213Z,9.07
2019-05-06T09:08:24.426Z,8.92
2019-05-06T09:13:26.300Z,8.88
2019-05-06T09:18:27.862Z,8.96
2019-05-06T09:23:29.655Z,9.12
2019-05-06T09:28:33.927Z,9.29
2019-05-06T09:33:37.506Z,9.25
2019-05-06T09:38:39.000Z,9.26
2019-05-06T09:43:40.575Z,9.28
2019-05-06T09:48:48.159Z,9.30
2019-05-06T09:54:04.185Z,9.24
2019-05-06T09:59:06.047Z,9.32
2019-05-06T10:04:08.781Z,9.23
2019-05-06T10:09:15.302Z,9.11
2019-05-06T10:14:15.402Z,9.02
2019-05-06T10:19:17.234Z,8.91
2019-05-06T10:24:19.118Z,8.88
2019-05-06T10:29:35.081Z,8.91
2019-05-06T10:34:37.055Z,8.96
2019-05-06T10:39:44.287Z,9.10
2019-05-06T10:44:54.454Z,9.09
2019-05-06T10:49:55.990Z,9.05
2019-05-06T10:54:57.756Z,9.12
2019-05-06T10:59:59.531Z,9.17
2019-05-06T11:05:02.786Z,9.27
2019-05-06T11:10:05.681Z,9.31
2019-05-06T11:15:08.154Z,9.41
2019-05-06T11:20:13.417Z,9.53
2019-05-06T11:25:14.513Z,9.67
2019-05-06T11:30:34.605Z,9.79
2019-05-06T11:35:54.658Z,9.83
2019-05-06T11:40:56.142Z,9.84
2019-05-06T11:45:57.634Z,9.81
2019-05-06T11:51:01.006Z,9.79
2019-05-06T11:56:04.887Z,9.83
2019-05-06T12:01:14.472Z,9.84
2019-05-06T12:06:16.147Z,9.89
2019-05-06T12:11:17.815Z,9.91
2019-05-06T12:16:19.321Z,9.91
2019-05-06T12:21:23.000Z,9.88
2019-05-06T12:26:24.192Z,9.92
2019-05-06T12:31:25.699Z,9.90
2019-05-06T12:36:27.523Z,9.89
2019-05-06T12:41:29.124Z,9.99
2019-05-06T12:46:48.195Z,9.91
2019-05-06T12:51:49.821Z,9.93
2019-05-06T12:56:54.298Z,9.91
2019-05-06T13:01:56.186Z,9.92
2019-05-06T13:06:57.771Z,9.93
2019-05-06T13:11:59.428Z,9.90
2019-05-06T13:17:02.608Z,9.86
2019-05-06T13:22:05.101Z,9.87
2019-05-06T13:27:08.485Z,9.85
2019-05-06T13:32:12.792Z,9.89
2019-05-06T13:37:15.510Z,9.92
2019-05-06T13:42:19.140Z,9.92
2019-05-06T13:47:39.190Z,9.88
2019-05-06T13:52:43.063Z,9.91
2019-05-06T13:57:44.555Z,9.98
2019-05-06T14:02:53.026Z,10.03
2019-05-06T14:07:54.294Z,10.03
2019-05-06T14:12:55.776Z,10.03
2019-05-06T14:17:57.932Z,10.00
2019-05-06T14:22:59.430Z,10.01
2019-05-06T14:28:08.787Z,10.00
2019-05-06T14:33:12.660Z,9.99
2019-05-06T14:38:15.736Z,9.99
2019-05-06T14:43:17.283Z,10.00
2019-05-06T14:48:19.002Z,10.02
2019-05-06T14:53:20.480Z,10.04
2019-05-06T14:58:22.794Z,10.01
2019-05-06T15:03:24.374Z,9.97
2019-05-06T15:08:26.155Z,9.97
2019-05-06T15:13:27.633Z,9.95
2019-05-06T15:18:29.117Z,9.95
2019-05-06T15:23:30.681Z,9.94
2019-05-06T15:28:33.805Z,9.90
2019-05-06T15:33:39.983Z,9.91
2019-05-06T15:38:42.049Z,9.88
2019-05-06T15:43:43.644Z,9.87
2019-05-06T15:48:45.206Z,9.84
2019-05-06T15:53:47.055Z,9.82
2019-05-06T15:58:48.623Z,9.76
2019-05-06T16:03:50.120Z,9.78
2019-05-06T16:08:52.607Z,9.77
2019-05-06T16:13:54.337Z,9.75
2019-05-06T16:18:56.506Z,9.73
2019-05-06T16:24:02.399Z,9.71
2019-05-06T16:29:03.702Z,9.65
2019-05-06T16:34:05.248Z,9.59
2019-05-06T16:39:07.311Z,9.58
2019-05-06T16:44:09.311Z,9.55
2019-05-06T16:49:10.987Z,9.53
2019-05-06T16:54:12.624Z,9.45
2019-05-06T16:59:14.343Z,9.40
2019-05-06T17:04:18.996Z,9.37
2019-05-06T17:09:26.910Z,9.33
2019-05-06T17:14:24.068Z,9.28
2019-05-06T17:19:25.551Z,9.25
2019-05-06T17:24:27.276Z,9.21
2019-05-06T17:29:33.943Z,9.22
2019-05-06T17:34:37.670Z,9.17
2019-05-06T17:39:39.147Z,9.12
2019-05-06T17:44:42.841Z,9.03
2019-05-06T17:49:44.125Z,8.96
2019-05-06T17:54:45.715Z,8.93
2019-05-06T17:59:47.201Z,8.92
2019-05-06T18:04:49.131Z,8.94
2019-05-06T18:09:52.244Z,8.93
2019-05-06T18:14:53.990Z,8.93
2019-05-06T18:19:55.876Z,8.90
2019-05-06T18:24:57.354Z,8.90
2019-05-06T18:30:11.052Z,8.90
2019-05-06T18:35:04.880Z,8.92
2019-05-06T18:40:06.660Z,8.87
2019-05-06T18:45:08.832Z,8.84
2019-05-06T18:50:12.542Z,8.84
2019-05-06T18:55:14.753Z,8.84
2019-05-06T19:00:17.378Z,8.82
2019-05-06T19:05:27.123Z,8.75
2019-05-06T19:10:32.737Z,8.72
2019-05-06T19:15:34.570Z,8.65
2019-05-06T19:20:36.046Z,8.58
2019-05-06T19:25:37.625Z,8.50
2019-05-06T19:30:39.203Z,8.46
2019-05-06T19:35:42.856Z,8.42
2019-05-06T19:40:44.651Z,8.41
2019-05-06T19:45:46.226Z,8.40
2019-05-06T19:50:47.891Z,8.42
2019-05-06T19:55:49.524Z,8.40
2019-05-06T20:00:52.846Z,8.41
2019-05-06T20:05:54.760Z,8.45
2019-05-06T20:11:07.977Z,8.46
2019-05-06T20:16:09.454Z,8.46
2019-05-06T20:21:11.362Z,8.47
2019-05-06T20:26:12.880Z,8.45
2019-05-06T20:31:14.358Z,8.39
2019-05-06T20:36:16.043Z,8.37
2019-05-06T20:41:18.681Z,8.37
2019-05-06T20:46:21.997Z,8.34
2019-05-06T20:51:23.542Z,8.36
2019-05-06T20:56:26.247Z,8.32
2019-05-06T21:01:27.819Z,8.24
2019-05-06T21:06:29.391Z,8.20
2019-05-06T21:11:32.572Z,8.15
2019-05-06T21:16:34.470Z,8.12
2019-05-06T21:21:36.003Z,8.05
2019-05-06T21:26:37.482Z,8.00
2019-05-06T21:31:39.075Z,7.94
2019-05-06T21:36:42.226Z,7.90
2019-05-06T21:41:44.007Z,7.83
2019-05-06T21:46:45.498Z,7.73
2019-05-06T21:51:47.099Z,7.67
2019-05-06T21:56:48.695Z,7.59
2019-05-06T22:01:52.042Z,7.55
2019-05-06T22:06:53.906Z,7.52
2019-05-06T22:11:55.685Z,7.53
2019-05-06T22:16:57.364Z,7.45
2019-05-06T22:22:06.377Z,7.38
2019-05-06T22:27:07.863Z,7.32
2019-05-06T22:32:09.442Z,7.28
2019-05-06T22:37:12.544Z,7.31
2019-05-06T22:42:14.462Z,7.32
2019-05-06T22:47:15.928Z,7.29
2019-05-06T22:52:17.402Z,7.32
2019-05-06T22:57:18.875Z,7.35
2019-05-06T23:02:22.666Z,7.31
2019-05-06T23:07:24.172Z,7.30
2019-05-06T23:12:25.646Z,7.29
2019-05-06T23:17:27.171Z,7.29
2019-05-06T23:22:28.695Z,7.32
2019-05-06T23:27:30.179Z,7.30
2019-05-06T23:32:32.610Z,7.27
2019-05-06T23:38:33.762Z,7.26
2019-05-06T23:44:43.064Z,7.23
2019-05-06T23:50:31.945Z,7.18
2019-05-06T23:56:30.167Z,7.05
